createdAt,value
2019-04-23T00:01:41.865Z,18.70
2019-04-23T00:04:18.320Z,18.60
2019-04-23T00:06:59.435Z,18.50
2019-04-23T00:11:54.371Z,18.60
2019-04-23T00:14:35.424Z,18.50
2019-04-23T00:16:59.175Z,18.50
2019-04-23T00:19:24.701Z,18.50
2019-04-23T00:21:58.530Z,18.40
2019-04-23T00:29:53.294Z,18.60
2019-04-23T00:32:25.157Z,18.50
2019-04-23T00:37:25.681Z,18.40
2019-04-23T00:39:52.799Z,18.30
2019-04-23T00:44:51.574Z,18.50
2019-04-23T00:47:25.720Z,18.40
2019-04-23T00:50:03.886Z,18.50
2019-04-23T00:52:30.574Z,18.60
2019-04-23T00:55:04.386Z,18.50
2019-04-23T00:57:30.569Z,18.40
2019-04-23T01:00:03.317Z,18.40
2019-04-23T01:02:31.210Z,18.30
2019-04-23T01:05:06.791Z,18.30
2019-04-23T01:10:02.835Z,18.20
2019-04-23T01:12:37.538Z,18.10
2019-04-23T01:15:02.499Z,18.00
2019-04-23T01:17:39.758Z,17.90
2019-04-23T01:20:05.751Z,17.90
2019-04-23T01:22:16.667Z,17.80
2019-04-23T01:25:04.464Z,17.80
2019-04-23T01:28:07.791Z,17.80
2019-04-23T01:30:40.614Z,17.80
2019-04-23T01:33:11.070Z,17.70
2019-04-23T01:35:41.322Z,17.70
2019-04-23T01:38:11.085Z,17.80
2019-04-23T01:40:40.692Z,17.80
2019-04-23T01:43:16.258Z,17.80
2019-04-23T01:45:40.956Z,17.80
2019-04-23T01:48:13.128Z,17.70
2019-04-23T01:53:18.429Z,17.70
2019-04-23T01:55:56.187Z,17.60
2019-04-23T01:58:32.437Z,17.60
2019-04-23T02:03:20.692Z,17.50
2019-04-23T02:05:58.289Z,17.50
2019-04-23T02:08:20.961Z,17.50
2019-04-23T02:10:58.781Z,17.50
2019-04-23T02:15:52.864Z,17.40
2019-04-23T02:18:23.095Z,17.40
2019-04-23T02:23:32.874Z,17.40
2019-04-23T02:26:03.237Z,17.40
2019-04-23T02:28:32.868Z,17.30
2019-04-23T02:31:35.811Z,17.30
2019-04-23T02:38:46.362Z,17.10
2019-04-23T02:41:20.390Z,17.20
2019-04-23T02:43:36.105Z,17.30
2019-04-23T02:46:11.670Z,17.20
2019-04-23T02:48:52.594Z,17.30
2019-04-23T02:51:21.476Z,17.30
2019-04-23T02:56:21.554Z,17.20
2019-04-23T03:03:51.329Z,17.10
2019-04-23T03:06:18.912Z,17.00
2019-04-23T03:08:47.045Z,17.00
2019-04-23T03:13:54.129Z,17.10
2019-04-23T03:24:43.609Z,17.20
2019-04-23T03:27:19.331Z,17.20
2019-04-23T03:29:40.478Z,17.10
2019-04-23T03:37:17.022Z,17.70
2019-04-23T03:42:09.939Z,17.40
2019-04-23T03:47:18.742Z,17.20
2019-04-23T03:49:46.392Z,17.20
2019-04-23T03:52:24.953Z,17.10
2019-04-23T03:59:58.978Z,17.30
2019-04-23T04:04:44.598Z,17.30
2019-04-23T04:17:30.229Z,17.20
2019-04-23T04:22:54.471Z,17.10
2019-04-23T04:30:01.167Z,17.20
2019-04-23T04:32:46.909Z,17.10
2019-04-23T04:42:37.065Z,16.90
2019-04-23T04:45:14.234Z,16.80
2019-04-23T04:52:47.118Z,16.70
2019-04-23T04:55:15.602Z,16.70
2019-04-23T04:57:40.179Z,16.70
2019-04-23T05:00:44.160Z,16.70
2019-04-23T05:05:47.869Z,16.80
2019-04-23T05:10:16.532Z,17.00
2019-04-23T05:13:19.500Z,17.00
2019-04-23T05:15:14.259Z,17.00
2019-04-23T05:17:59.921Z,16.90
2019-04-23T05:20:21.187Z,16.90
2019-04-23T05:23:08.821Z,16.90
2019-04-23T05:25:18.034Z,16.90
2019-04-23T05:28:06.332Z,17.00
2019-04-23T05:32:56.168Z,17.00
2019-04-23T05:35:39.929Z,17.00
2019-04-23T05:38:08.762Z,17.00
2019-04-23T05:42:58.855Z,17.00
2019-04-23T05:45:30.178Z,17.00
2019-04-23T05:48:06.803Z,16.90
2019-04-23T05:50:38.623Z,16.90
2019-04-23T05:52:59.250Z,17.10
2019-04-23T05:55:26.999Z,17.00
2019-04-23T05:58:03.691Z,16.90
2019-04-23T06:00:34.438Z,17.00
2019-04-23T06:03:04.735Z,17.20
2019-04-23T06:05:39.927Z,17.30
2019-04-23T06:08:06.921Z,17.40
2019-04-23T06:10:42.054Z,17.50
2019-04-23T06:13:06.597Z,17.60
2019-04-23T06:15:41.671Z,17.70
2019-04-23T06:20:42.284Z,17.70
2019-04-23T06:23:16.439Z,17.80
2019-04-23T06:25:59.651Z,17.90
2019-04-23T06:28:19.761Z,17.90
2019-04-23T06:33:16.344Z,18.00
2019-04-23T06:35:45.117Z,18.10
2019-04-23T06:38:34.404Z,18.20
2019-04-23T06:40:47.155Z,18.20
2019-04-23T06:43:22.603Z,18.30
2019-04-23T06:45:45.605Z,18.50
2019-04-23T06:53:12.650Z,18.40
2019-04-23T06:58:26.054Z,18.60
2019-04-23T07:00:59.198Z,18.60
2019-04-23T07:06:13.845Z,18.60
2019-04-23T07:08:56.256Z,18.60
2019-04-23T07:11:17.260Z,18.70
2019-04-23T07:13:50.751Z,18.70
2019-04-23T07:18:36.194Z,18.80
2019-04-23T07:21:15.462Z,18.90
2019-04-23T07:23:46.842Z,18.90
2019-04-23T07:26:21.274Z,19.00
2019-04-23T07:28:43.563Z,19.10
2019-04-23T07:31:14.133Z,19.10
2019-04-23T07:33:45.918Z,19.10
2019-04-23T07:36:17.575Z,19.10
2019-04-23T07:39:07.949Z,19.00
2019-04-23T07:41:39.468Z,19.00
2019-04-23T07:44:14.164Z,19.00
2019-04-23T07:46:52.768Z,18.90
2019-04-23T07:49:18.104Z,19.10
2019-04-23T07:51:48.113Z,19.10
2019-04-23T07:56:54.156Z,19.10
2019-04-23T07:59:20.754Z,19.10
2019-04-23T08:01:49.183Z,19.20
2019-04-23T08:04:16.525Z,19.30
2019-04-23T08:06:52.091Z,19.40
2019-04-23T08:11:49.261Z,19.40
2019-04-23T08:14:13.946Z,19.50
2019-04-23T08:16:49.969Z,19.50
2019-04-23T08:19:34.970Z,19.40
2019-04-23T08:21:58.172Z,19.40
2019-04-23T08:24:50.562Z,19.60
2019-04-23T08:29:45.916Z,19.70
2019-04-23T08:32:18.580Z,19.80
2019-04-23T08:34:57.751Z,19.70
2019-04-23T08:37:51.255Z,19.90
2019-04-23T08:39:46.490Z,20.00
2019-04-23T08:45:15.323Z,19.90
2019-04-23T08:47:49.043Z,19.90
2019-04-23T08:50:14.957Z,20.00
2019-04-23T08:52:43.074Z,19.80
2019-04-23T08:55:13.808Z,19.90
2019-04-23T08:57:45.308Z,19.80
2019-04-23T09:00:18.641Z,19.60
2019-04-23T09:05:16.147Z,20.00
2019-04-23T09:07:55.279Z,20.20
2019-04-23T09:10:19.654Z,20.20
2019-04-23T09:12:55.311Z,20.40
2019-04-23T09:15:26.291Z,20.50
2019-04-23T09:20:23.200Z,20.50
2019-04-23T09:23:02.823Z,20.60
2019-04-23T09:25:28.431Z,20.70
2019-04-23T09:27:54.440Z,20.70
2019-04-23T09:33:00.021Z,20.80
2019-04-23T09:35:27.490Z,20.80
2019-04-23T09:38:17.710Z,21.00
2019-04-23T09:44:02.822Z,21.10
2019-04-23T09:46:22.461Z,20.80
2019-04-23T09:48:54.814Z,20.80
2019-04-23T09:51:17.858Z,20.90
2019-04-23T09:53:51.219Z,20.90
2019-04-23T09:56:23.565Z,21.20
2019-04-23T09:58:57.752Z,21.20
2019-04-23T10:01:26.036Z,21.20
2019-04-23T10:03:46.165Z,21.20
2019-04-23T10:06:12.350Z,21.20
2019-04-23T10:08:42.938Z,21.40
2019-04-23T10:11:07.427Z,21.50
2019-04-23T10:13:36.639Z,21.40
2019-04-23T10:16:06.875Z,21.50
2019-04-23T10:18:37.369Z,21.40
2019-04-23T10:21:07.617Z,21.40
2019-04-23T10:23:37.168Z,21.30
2019-04-23T10:26:07.912Z,21.30
2019-04-23T10:28:42.165Z,21.30
2019-04-23T10:31:12.625Z,21.30
2019-04-23T10:33:42.177Z,21.40
2019-04-23T10:36:15.134Z,21.50
2019-04-23T10:38:54.300Z,21.40
2019-04-23T10:41:13.962Z,21.40
2019-04-23T10:43:47.994Z,21.40
2019-04-23T10:46:36.421Z,21.50
2019-04-23T10:49:42.402Z,21.50
2019-04-23T10:52:04.944Z,21.50
2019-04-23T10:54:39.566Z,21.60
2019-04-23T10:57:01.676Z,21.60
2019-04-23T11:07:27.089Z,21.60
2019-04-23T11:12:35.939Z,21.70
2019-04-23T11:14:57.818Z,21.60
2019-04-23T11:17:35.659Z,21.50
2019-04-23T11:20:07.462Z,21.60
2019-04-23T11:22:42.579Z,21.70
2019-04-23T11:25:21.569Z,21.70
2019-04-23T11:27:32.226Z,21.60
2019-04-23T11:30:05.716Z,21.70
2019-04-23T11:35:17.669Z,21.60
2019-04-23T11:40:11.229Z,21.70
2019-04-23T11:45:15.275Z,21.80
2019-04-23T11:48:12.318Z,21.80
2019-04-23T11:50:42.256Z,21.80
2019-04-23T11:52:51.556Z,21.80
2019-04-23T11:55:28.683Z,21.70
2019-04-23T11:57:52.470Z,21.70
2019-04-23T12:00:14.571Z,21.60
2019-04-23T12:05:54.710Z,21.60
2019-04-23T12:08:17.010Z,21.60
2019-04-23T12:11:15.560Z,21.60
2019-04-23T12:13:35.541Z,21.60
2019-04-23T12:16:00.746Z,21.50
2019-04-23T12:18:43.318Z,21.60
2019-04-23T12:21:13.377Z,21.70
2019-04-23T12:23:50.534Z,21.70
2019-04-23T12:26:20.917Z,21.70
2019-04-23T12:28:43.989Z,21.70
2019-04-23T12:31:08.784Z,21.70
2019-04-23T12:33:44.813Z,21.60
2019-04-23T12:36:42.082Z,21.60
2019-04-23T12:39:04.343Z,21.60
2019-04-23T12:41:30.579Z,21.50
2019-04-23T12:44:10.915Z,21.60
2019-04-23T12:46:38.453Z,21.70
2019-04-23T12:49:28.721Z,21.80
2019-04-23T12:51:45.294Z,21.80
2019-04-23T12:54:07.755Z,22.00
2019-04-23T12:56:49.107Z,22.00
2019-04-23T12:59:04.161Z,22.10
2019-04-23T13:01:44.267Z,22.10
2019-04-23T13:04:09.262Z,22.20
2019-04-23T13:06:36.809Z,22.20
2019-04-23T13:09:21.767Z,22.10
2019-04-23T13:11:41.056Z,22.10
2019-04-23T13:16:44.753Z,22.20
2019-04-23T13:19:26.381Z,22.20
2019-04-23T13:24:18.751Z,22.20
2019-04-23T13:26:44.703Z,22.30
2019-04-23T13:29:18.566Z,22.20
2019-04-23T13:31:44.713Z,22.20
2019-04-23T13:34:23.058Z,22.20
2019-04-23T13:36:51.517Z,22.30
2019-04-23T13:41:45.810Z,22.30
2019-04-23T13:44:17.270Z,22.30
2019-04-23T13:46:51.069Z,22.40
2019-04-23T13:49:28.124Z,22.50
2019-04-23T13:51:47.190Z,22.40
2019-04-23T13:54:28.418Z,22.50
2019-04-23T13:57:25.138Z,22.50
2019-04-23T13:59:35.173Z,22.60
2019-04-23T14:01:46.740Z,22.70
2019-04-23T14:06:59.520Z,22.80
2019-04-23T14:09:40.696Z,22.70
2019-04-23T14:12:01.496Z,22.80
2019-04-23T14:14:45.250Z,22.70
2019-04-23T14:17:16.575Z,22.70
2019-04-23T14:19:41.836Z,22.60
2019-04-23T14:22:20.958Z,22.50
2019-04-23T14:24:45.802Z,22.40
2019-04-23T14:27:17.961Z,22.40
2019-04-23T14:29:50.322Z,22.30
2019-04-23T14:32:15.953Z,22.30
2019-04-23T14:34:46.321Z,22.20
2019-04-23T14:37:16.153Z,22.20
2019-04-23T14:39:43.703Z,22.20
2019-04-23T14:42:20.406Z,22.20
2019-04-23T14:44:49.729Z,22.30
2019-04-23T14:47:23.927Z,22.20
2019-04-23T14:50:28.051Z,22.30
2019-04-23T14:52:38.335Z,22.30
2019-04-23T14:57:42.263Z,22.40
2019-04-23T15:00:01.866Z,22.30
2019-04-23T15:02:48.584Z,22.30
2019-04-23T15:05:13.146Z,22.40
2019-04-23T15:07:34.708Z,22.40
2019-04-23T15:12:39.055Z,22.30
2019-04-23T15:15:14.256Z,22.40
2019-04-23T15:17:40.535Z,22.30
2019-04-23T15:20:19.997Z,22.20
2019-04-23T15:23:17.153Z,22.20
2019-04-23T15:25:30.155Z,22.10
2019-04-23T15:30:09.078Z,22.00
2019-04-23T15:40:30.324Z,21.90
2019-04-23T15:42:57.991Z,21.80
2019-04-23T15:45:24.164Z,21.80
2019-04-23T15:48:00.527Z,21.80
2019-04-23T15:50:40.156Z,21.80
2019-04-23T15:55:44.134Z,21.70
2019-04-23T16:00:24.939Z,21.70
2019-04-23T16:02:29.480Z,21.60
2019-04-23T16:04:59.954Z,21.60
2019-04-23T16:07:48.256Z,21.50
2019-04-23T16:10:52.385Z,21.50
2019-04-23T16:13:02.519Z,21.50
2019-04-23T16:15:29.175Z,21.50
2019-04-23T16:18:20.290Z,21.50
2019-04-23T16:20:56.025Z,21.50
2019-04-23T16:23:15.225Z,21.50
2019-04-23T16:25:42.009Z,21.50
2019-04-23T16:28:23.976Z,21.50
2019-04-23T16:30:46.238Z,21.40
2019-04-23T16:33:11.161Z,21.30
2019-04-23T16:40:53.874Z,21.20
2019-04-23T16:43:40.406Z,21.20
2019-04-23T16:46:02.399Z,21.20
2019-04-23T16:48:55.326Z,21.30
2019-04-23T16:53:25.248Z,21.40
2019-04-23T16:56:06.925Z,21.40
2019-04-23T16:58:36.691Z,21.50
2019-04-23T17:01:08.588Z,21.50
2019-04-23T17:06:10.087Z,21.60
2019-04-23T17:08:57.779Z,21.60
2019-04-23T17:11:44.792Z,21.60
2019-04-23T17:14:13.575Z,21.60
2019-04-23T17:16:40.107Z,21.60
2019-04-23T17:19:17.757Z,21.60
2019-04-23T17:21:44.064Z,21.60
2019-04-23T17:24:19.027Z,21.60
2019-04-23T17:26:45.576Z,21.50
2019-04-23T17:31:44.960Z,21.40
2019-04-23T17:34:24.080Z,21.30
2019-04-23T17:36:56.131Z,21.30
2019-04-23T17:42:29.211Z,21.20
2019-04-23T17:47:52.429Z,21.10
2019-04-23T17:50:28.626Z,21.00
2019-04-23T17:55:35.855Z,20.90
2019-04-23T17:58:06.245Z,20.90
2019-04-23T18:03:11.107Z,20.70
2019-04-23T18:05:33.328Z,20.80
2019-04-23T18:08:15.529Z,20.70
2019-04-23T18:11:05.653Z,20.60
2019-04-23T18:13:13.306Z,20.60
2019-04-23T18:15:45.499Z,20.50
2019-04-23T18:18:28.415Z,20.50
2019-04-23T18:21:14.254Z,20.40
2019-04-23T18:23:37.932Z,20.40
2019-04-23T18:26:17.536Z,20.40
2019-04-23T18:28:50.182Z,20.20
2019-04-23T18:31:12.965Z,20.20
2019-04-23T18:36:14.730Z,20.20
2019-04-23T18:38:50.063Z,20.10
2019-04-23T18:41:39.455Z,20.00
2019-04-23T18:43:46.376Z,20.00
2019-04-23T18:46:30.577Z,19.90
2019-04-23T18:48:49.778Z,19.90
2019-04-23T18:51:37.212Z,19.90
2019-04-23T18:53:52.986Z,19.80
2019-04-23T19:01:27.860Z,19.60
2019-04-23T19:04:17.437Z,19.70
2019-04-23T19:06:55.490Z,19.60
2019-04-23T19:09:23.416Z,19.60
2019-04-23T19:14:40.909Z,19.60
2019-04-23T19:17:29.872Z,19.60
2019-04-23T19:19:36.784Z,19.50
2019-04-23T19:25:01.598Z,19.50
2019-04-23T19:27:32.093Z,19.50
2019-04-23T19:30:18.344Z,19.50
2019-04-23T19:32:59.107Z,19.40
2019-04-23T19:35:57.506Z,19.40
2019-04-23T19:38:13.443Z,19.30
2019-04-23T19:41:00.177Z,19.30
2019-04-23T19:43:50.627Z,19.30
2019-04-23T19:49:07.188Z,19.30
2019-04-23T19:51:38.873Z,19.30
2019-04-23T19:54:21.525Z,19.30
2019-04-23T19:56:59.289Z,19.30
2019-04-23T20:02:18.611Z,19.20
2019-04-23T20:10:44.561Z,19.20
2019-04-23T20:13:19.880Z,19.10
2019-04-23T20:16:10.575Z,19.10
2019-04-23T20:21:34.692Z,19.00
2019-04-23T20:27:01.187Z,18.90
2019-04-23T20:30:05.277Z,18.90
2019-04-23T20:35:35.564Z,18.80
2019-04-23T20:40:39.934Z,18.80
2019-04-23T20:43:09.359Z,18.70
2019-04-23T20:45:58.807Z,18.70
2019-04-23T20:48:49.053Z,18.70
2019-04-23T20:51:16.195Z,18.70
2019-04-23T20:54:12.326Z,18.70
2019-04-23T20:56:42.667Z,18.60
2019-04-23T20:59:33.650Z,18.60
2019-04-23T21:02:58.830Z,18.50
2019-04-23T21:08:06.096Z,18.50
2019-04-23T21:10:50.698Z,18.50
2019-04-23T21:14:01.685Z,18.40
2019-04-23T21:16:15.287Z,18.40
2019-04-23T21:18:55.049Z,18.30
2019-04-23T21:21:46.208Z,18.30
2019-04-23T21:24:27.460Z,18.30
2019-04-23T21:27:21.826Z,18.30
2019-04-23T21:30:05.236Z,18.30
2019-04-23T21:35:44.000Z,18.30
2019-04-23T21:38:09.676Z,18.30
2019-04-23T21:40:53.647Z,18.30
2019-04-23T21:43:10.495Z,18.30
2019-04-23T21:45:52.702Z,18.30
2019-04-23T21:53:20.235Z,18.30
2019-04-23T21:56:42.748Z,18.30
2019-04-23T21:58:20.118Z,18.30
2019-04-23T22:00:53.081Z,18.40
2019-04-23T22:03:17.911Z,18.30
2019-04-23T22:05:49.467Z,18.30
2019-04-23T22:08:33.022Z,18.30
2019-04-23T22:11:00.493Z,18.30
2019-04-23T22:16:01.773Z,18.30
2019-04-23T22:18:27.691Z,18.40
2019-04-23T22:20:59.452Z,18.30
2019-04-23T22:23:30.377Z,18.30
2019-04-23T22:26:23.560Z,18.30
2019-04-23T22:28:30.213Z,18.40
2019-04-23T22:31:04.235Z,18.40
2019-04-23T22:33:37.266Z,18.30
2019-04-23T22:36:04.513Z,18.40
2019-04-23T22:38:33.851Z,18.30
2019-04-23T22:43:31.422Z,18.30
2019-04-23T22:48:47.629Z,18.20
2019-04-23T22:51:10.892Z,18.20
2019-04-23T22:53:37.833Z,18.10
2019-04-23T22:56:10.021Z,18.10
2019-04-23T22:58:51.708Z,18.10
2019-04-23T23:01:25.975Z,18.00
2019-04-23T23:03:58.996Z,18.00
2019-04-23T23:06:36.850Z,17.90
2019-04-23T23:09:11.626Z,17.90
2019-04-23T23:11:22.781Z,17.80
2019-04-23T23:16:28.194Z,17.80
2019-04-23T23:19:10.205Z,17.70
2019-04-23T23:21:43.093Z,17.70
2019-04-23T23:24:10.051Z,17.70
2019-04-23T23:29:00.721Z,17.70
2019-04-23T23:31:37.299Z,17.70
2019-04-23T23:34:11.671Z,17.70
2019-04-23T23:39:18.172Z,17.70
2019-04-23T23:41:46.646Z,17.80
2019-04-23T23:44:28.082Z,17.80
2019-04-23T23:46:50.665Z,17.70
2019-04-23T23:49:14.150Z,17.80
2019-04-23T23:54:19.735Z,17.70
2019-04-23T23:56:49.783Z,17.70
